createdAt,value
2023-05-07T08:42:48.311Z,12.70
2023-05-07T08:45:20.212Z,12.80
2023-05-07T08:48:00.905Z,12.80
2023-05-07T08:50:28.093Z,12.80
2023-05-07T08:52:55.300Z,12.70
2023-05-07T08:55:22.841Z,12.70
2023-05-07T08:57:51.260Z,12.70
2023-05-07T09:00:19.002Z,12.70
2023-05-07T09:02:46.240Z,12.80
2023-05-07T09:05:23.117Z,12.90
2023-05-07T09:07:55.023Z,13.00
2023-05-07T09:10:22.627Z,13.10
2023-05-07T09:13:00.983Z,13.20
2023-05-07T09:15:29.678Z,13.40
2023-05-07T09:18:02.453Z,13.50
2023-05-07T09:20:31.890Z,13.50
2023-05-07T09:22:58.777Z,13.70
2023-05-07T09:25:30.400Z,13.80
2023-05-07T09:27:57.265Z,13.80
2023-05-07T09:30:31.705Z,13.80
2023-05-07T09:33:03.458Z,13.80
2023-05-07T09:35:33.286Z,13.90
2023-05-07T09:38:03.907Z,14.00
2023-05-07T09:40:32.113Z,14.00
2023-05-07T09:43:11.432Z,14.10
2023-05-07T09:45:39.436Z,14.30
2023-05-07T09:48:10.100Z,14.40
2023-05-07T09:50:40.093Z,14.50
2023-05-07T09:53:07.084Z,14.60
2023-05-07T09:55:34.061Z,14.70
2023-05-07T09:58:03.546Z,15.00
2023-05-07T10:00:31.297Z,15.50
2023-05-07T10:02:58.804Z,16.00
2023-05-07T10:05:26.317Z,16.30
2023-05-07T10:07:53.889Z,16.60
2023-05-07T10:10:21.039Z,16.60
2023-05-07T10:12:48.293Z,16.50
2023-05-07T10:15:15.605Z,16.40
2023-05-07T10:17:42.785Z,16.40
2023-05-07T10:20:10.717Z,16.60
2023-05-07T10:22:44.486Z,16.80
2023-05-07T10:25:19.151Z,16.70
2023-05-07T10:27:50.335Z,16.70
2023-05-07T10:30:39.899Z,16.50
2023-05-07T10:33:08.114Z,16.50
2023-05-07T10:35:43.518Z,16.40
2023-05-07T10:38:11.106Z,16.10
2023-05-07T10:40:38.585Z,16.00
2023-05-07T10:43:09.333Z,16.00
2023-05-07T13:12:21.625Z,19.40
2023-05-07T13:14:48.570Z,19.40
2023-05-07T13:17:15.639Z,19.20
2023-05-07T13:19:43.372Z,18.80
2023-05-07T13:22:10.385Z,18.70
2023-05-07T13:24:37.831Z,18.50
2023-05-07T13:27:05.103Z,18.60
2023-05-07T13:29:32.976Z,18.80
2023-05-07T13:32:00.185Z,19.00
2023-05-07T13:34:27.131Z,19.20
2023-05-07T13:36:53.999Z,19.30
2023-05-07T13:39:21.124Z,19.20
2023-05-07T13:41:47.895Z,19.30
2023-05-07T13:44:14.712Z,19.30
2023-05-07T13:46:41.520Z,19.40
2023-05-07T13:49:08.379Z,19.80
2023-05-07T13:51:35.744Z,20.10
2023-05-07T13:54:02.585Z,20.10
2023-05-07T13:56:31.962Z,19.90
2023-05-07T13:59:00.841Z,19.50
2023-05-07T14:01:28.451Z,19.30
2023-05-07T14:03:56.880Z,19.40
2023-05-07T14:06:23.795Z,19.50
2023-05-07T14:08:51.041Z,19.70
2023-05-07T14:11:18.145Z,19.80
2023-05-07T14:13:45.003Z,19.70
2023-05-07T14:16:11.860Z,19.60
2023-05-07T14:18:39.604Z,19.80
2023-05-07T14:21:10.750Z,20.10
2023-05-07T14:23:37.650Z,20.10
2023-05-07T14:26:04.579Z,19.80
2023-05-07T14:28:33.475Z,19.50
2023-05-07T14:31:00.948Z,19.40
2023-05-07T14:33:27.866Z,19.30
2023-05-07T14:35:54.677Z,19.30
2023-05-07T14:38:21.470Z,19.50
2023-05-07T14:40:48.309Z,19.80
2023-05-07T14:43:15.115Z,19.70
2023-05-07T14:45:42.274Z,19.60
2023-05-07T14:48:10.336Z,19.40
2023-05-07T14:50:37.280Z,19.40
2023-05-07T14:53:05.734Z,19.50
2023-05-07T14:55:33.595Z,19.50
2023-05-07T14:58:02.695Z,19.50
2023-05-07T15:00:29.604Z,19.40
2023-05-07T15:03:02.187Z,19.40
2023-05-07T15:05:29.030Z,19.30
2023-05-07T15:07:57.532Z,19.00
2023-05-07T15:10:24.566Z,18.80
2023-05-07T15:12:51.639Z,18.70
2023-05-07T15:15:18.531Z,18.50
2023-05-07T15:17:45.430Z,18.50
2023-05-07T15:20:12.717Z,18.70
2023-05-07T15:22:39.593Z,18.80
2023-05-07T15:25:06.738Z,18.70
2023-05-07T15:27:33.590Z,18.60
2023-05-07T15:30:00.723Z,18.70
2023-05-07T15:32:27.726Z,18.70
2023-05-07T15:34:54.755Z,18.60
2023-05-07T15:37:21.526Z,18.50
2023-05-07T15:39:48.366Z,18.50
2023-05-07T15:42:15.242Z,18.20
2023-05-07T15:44:42.387Z,18.00
2023-05-07T15:47:09.283Z,17.90
2023-05-07T15:49:36.166Z,17.90
2023-05-07T15:52:05.209Z,17.70
2023-05-07T15:54:32.217Z,17.70
2023-05-07T15:56:59.025Z,17.70
2023-05-07T15:59:25.939Z,17.70
2023-05-07T16:01:53.544Z,17.70
2023-05-07T16:04:20.627Z,17.70
2023-05-07T16:06:47.746Z,17.60
2023-05-07T16:09:14.808Z,17.50
2023-05-07T16:11:41.732Z,17.40
2023-05-07T16:14:08.594Z,17.40
2023-05-07T16:16:36.194Z,17.40
2023-05-07T16:19:04.940Z,17.30
2023-05-07T16:21:32.805Z,17.30
2023-05-07T16:23:59.765Z,17.20
2023-05-07T16:26:26.926Z,17.10
2023-05-07T16:28:53.821Z,17.10
2023-05-07T16:31:20.796Z,17.10
2023-05-07T16:33:47.670Z,17.10
2023-05-07T16:36:14.613Z,17.10
2023-05-07T16:38:41.502Z,17.10
2023-05-07T16:41:08.368Z,17.10
2023-05-07T16:43:35.145Z,17.00
2023-05-07T16:46:02.435Z,17.00
2023-05-07T16:48:29.347Z,16.90
2023-05-07T16:50:58.007Z,16.80
2023-05-07T16:53:24.867Z,16.60
2023-05-07T16:55:56.333Z,16.40
2023-05-07T16:58:23.256Z,16.30
2023-05-07T17:00:51.224Z,16.20
2023-05-07T17:03:19.490Z,16.20
2023-05-07T17:05:46.809Z,16.10
2023-05-07T17:08:14.281Z,16.00
2023-05-07T17:10:41.761Z,16.00
2023-05-07T17:13:08.701Z,15.90
2023-05-07T17:15:35.555Z,15.80
2023-05-07T17:18:02.422Z,15.70
2023-05-07T17:20:29.654Z,15.60
2023-05-07T17:22:57.090Z,15.50
2023-05-07T17:25:23.979Z,15.30
2023-05-07T17:27:51.008Z,15.20
2023-05-07T17:30:18.369Z,15.00
2023-05-07T17:32:45.767Z,14.90
2023-05-07T17:35:12.651Z,14.90
2023-05-07T17:37:40.109Z,14.70
2023-05-07T17:40:07.767Z,14.70
2023-05-07T17:42:34.599Z,14.60
2023-05-07T17:45:01.660Z,14.50
2023-05-07T17:47:28.728Z,14.40
2023-05-07T17:49:55.862Z,14.30
2023-05-07T17:52:22.901Z,14.20
2023-05-07T17:54:50.284Z,14.10
2023-05-07T17:57:17.139Z,14.10
2023-05-07T17:59:44.098Z,13.90
2023-05-07T18:02:11.261Z,13.80
2023-05-07T18:04:38.095Z,13.70
2023-05-07T18:07:05.266Z,13.60
2023-05-07T18:09:34.044Z,13.60
2023-05-07T18:12:01.007Z,13.50
2023-05-07T18:14:27.909Z,13.40
2023-05-07T18:16:54.932Z,13.30
2023-05-07T18:19:22.380Z,13.20
2023-05-07T18:21:49.244Z,13.20
2023-05-07T18:24:16.115Z,13.00
2023-05-07T18:26:43.077Z,13.00
2023-05-07T18:29:10.832Z,12.90
2023-05-07T18:31:38.242Z,12.80
2023-05-07T18:34:06.366Z,12.70
2023-05-07T18:36:33.438Z,12.60
2023-05-07T18:39:01.328Z,12.60
2023-05-07T18:41:28.163Z,12.50
2023-05-07T18:43:55.037Z,12.40
2023-05-07T18:46:21.947Z,12.30
2023-05-07T18:48:48.841Z,12.20
2023-05-07T18:51:15.708Z,12.10
2023-05-07T18:53:42.555Z,12.00
2023-05-07T18:56:09.441Z,11.90
2023-05-07T18:58:36.419Z,11.90
2023-05-07T19:01:08.228Z,11.80
2023-05-07T19:03:35.845Z,11.70
2023-05-07T19:06:03.045Z,11.60
2023-05-07T19:08:29.874Z,11.50
2023-05-07T19:10:56.927Z,11.40
2023-05-07T19:13:26.055Z,11.30
2023-05-07T19:15:53.987Z,11.20
2023-05-07T19:18:21.867Z,11.20
2023-05-07T19:20:51.950Z,11.10
2023-05-07T19:23:21.315Z,11.00
2023-05-07T19:25:48.265Z,11.00
2023-05-07T19:28:15.068Z,10.90
2023-05-07T19:30:41.921Z,10.80
2023-05-07T19:33:08.882Z,10.80
2023-05-07T19:35:35.779Z,10.70
2023-05-07T19:38:03.512Z,10.70
2023-05-07T19:40:30.420Z,10.70
2023-05-07T19:42:57.278Z,10.60
2023-05-07T19:45:24.349Z,10.60
2023-05-07T19:47:51.452Z,10.50
2023-05-07T19:50:18.579Z,10.50
2023-05-07T19:52:45.617Z,10.40
2023-05-07T19:55:12.940Z,10.40
2023-05-07T19:57:40.130Z,10.30
2023-05-07T20:00:28.413Z,10.30
